createdAt,value
2018-02-18T00:01:30.384Z,82.10
2018-02-18T00:03:56.611Z,82.10
2018-02-18T00:06:22.868Z,82.10
2018-02-18T00:08:49.101Z,82.40
2018-02-18T00:11:16.088Z,82.90
2018-02-18T00:13:42.318Z,82.80
2018-02-18T00:16:08.597Z,82.80
2018-02-18T00:18:34.840Z,82.80
2018-02-18T00:21:01.832Z,82.70
2018-02-18T00:23:28.072Z,82.80
2018-02-18T00:25:54.302Z,82.50
2018-02-18T00:28:20.521Z,82.70
2018-02-18T00:30:46.776Z,82.40
2018-02-18T00:33:12.971Z,82.40
2018-02-18T00:35:39.232Z,82.30
2018-02-18T00:38:05.424Z,83.00
2018-02-18T00:40:31.901Z,82.50
2018-02-18T00:42:58.111Z,82.50
2018-02-18T00:45:24.353Z,82.70
2018-02-18T00:47:50.628Z,83.50
2018-02-18T00:50:16.871Z,83.10
2018-02-18T00:52:43.114Z,83.10
2018-02-18T00:55:09.366Z,83.00
2018-02-18T00:57:35.595Z,82.80
2018-02-18T01:00:01.820Z,82.60
2018-02-18T01:02:28.096Z,82.50
2018-02-18T01:04:54.327Z,82.50
2018-02-18T01:07:20.564Z,82.70
2018-02-18T01:09:46.821Z,82.70
2018-02-18T01:12:13.059Z,82.70
2018-02-18T01:14:39.295Z,82.90
2018-02-18T01:17:05.524Z,83.00
2018-02-18T01:19:31.777Z,83.40
2018-02-18T01:21:58.748Z,83.10
2018-02-18T01:24:24.988Z,82.90
2018-02-18T01:26:51.257Z,82.90
2018-02-18T01:29:17.487Z,83.10
2018-02-18T01:31:44.512Z,82.90
2018-02-18T01:34:10.720Z,82.80
2018-02-18T01:36:36.933Z,83.00
2018-02-18T01:39:03.251Z,82.90
2018-02-18T01:41:29.475Z,82.70
2018-02-18T01:43:56.459Z,83.30
2018-02-18T01:46:22.687Z,83.20
2018-02-18T01:48:48.932Z,83.40
2018-02-18T01:51:15.159Z,83.40
2018-02-18T01:53:41.372Z,83.30
2018-02-18T01:56:07.597Z,83.40
2018-02-18T01:58:33.835Z,83.60
2018-02-18T02:01:00.092Z,83.50
2018-02-18T02:03:26.296Z,83.70
2018-02-18T02:05:52.525Z,83.40
2018-02-18T02:08:19.519Z,83.40
2018-02-18T02:10:46.479Z,83.30
2018-02-18T02:13:12.707Z,83.20
2018-02-18T02:15:38.944Z,83.10
2018-02-18T02:18:05.193Z,83.00
2018-02-18T02:20:31.464Z,83.10
2018-02-18T02:22:58.424Z,83.90
2018-02-18T02:25:25.398Z,83.10
2018-02-18T02:27:51.656Z,83.10
2018-02-18T02:30:17.890Z,83.10
2018-02-18T02:32:45.615Z,82.70
2018-02-18T02:35:11.843Z,82.70
2018-02-18T02:37:38.088Z,83.20
2018-02-18T02:40:04.344Z,82.60
2018-02-18T02:42:30.560Z,82.60
2018-02-18T02:44:56.806Z,82.50
2018-02-18T02:47:23.016Z,82.60
2018-02-18T02:49:49.243Z,82.60
2018-02-18T02:52:15.472Z,82.90
2018-02-18T02:54:41.705Z,82.70
2018-02-18T02:57:07.980Z,82.50
2018-02-18T02:59:34.192Z,82.40
2018-02-18T03:02:01.193Z,82.60
2018-02-18T03:04:34.284Z,82.60
2018-02-18T03:07:00.519Z,82.40
2018-02-18T03:09:26.748Z,82.20
2018-02-18T03:11:52.968Z,82.00
2018-02-18T03:14:19.224Z,81.80
2018-02-18T03:16:45.431Z,81.90
2018-02-18T03:19:11.677Z,82.20
2018-02-18T03:21:38.848Z,82.30
2018-02-18T03:24:05.866Z,82.60
2018-02-18T03:26:32.087Z,82.50
2018-02-18T03:28:58.292Z,81.90
2018-02-18T03:31:24.708Z,82.00
2018-02-18T03:33:50.987Z,82.40
2018-02-18T03:36:17.967Z,85.60
2018-02-18T03:38:44.992Z,84.50
2018-02-18T03:41:11.273Z,84.50
2018-02-18T03:43:37.511Z,84.40
2018-02-18T03:46:03.752Z,84.40
2018-02-18T03:48:29.993Z,84.40
2018-02-18T03:50:56.242Z,84.20
2018-02-18T03:53:23.207Z,84.10
2018-02-18T03:55:49.410Z,83.90
2018-02-18T03:58:15.636Z,83.70
2018-02-18T04:00:41.883Z,83.80
2018-02-18T04:03:08.844Z,84.20
2018-02-18T04:05:35.064Z,84.20
2018-02-18T04:08:01.295Z,84.10
2018-02-18T04:10:27.528Z,83.60
2018-02-18T04:12:53.796Z,83.30
2018-02-18T04:15:20.053Z,83.20
2018-02-18T04:17:46.291Z,83.20
2018-02-18T04:20:13.269Z,82.60
2018-02-18T04:22:39.493Z,82.50
2018-02-18T04:25:05.754Z,82.50
2018-02-18T04:27:31.975Z,82.30
2018-02-18T04:30:05.024Z,82.50
2018-02-18T04:32:32.012Z,82.00
2018-02-18T04:34:58.208Z,82.00
2018-02-18T04:37:24.458Z,82.10
2018-02-18T04:39:50.672Z,82.00
2018-02-18T04:42:16.903Z,82.30
2018-02-18T04:44:43.143Z,82.20
2018-02-18T04:47:09.400Z,82.10
2018-02-18T04:49:35.636Z,81.50
2018-02-18T04:52:01.887Z,81.20
2018-02-18T04:54:28.872Z,80.60
2018-02-18T04:56:55.118Z,80.40
2018-02-18T04:59:21.341Z,80.90
2018-02-18T05:01:47.567Z,81.00
2018-02-18T05:04:13.824Z,80.60
2018-02-18T05:06:40.081Z,80.70
2018-02-18T05:09:07.036Z,80.10
2018-02-18T05:11:33.279Z,80.10
2018-02-18T05:13:59.515Z,80.00
2018-02-18T05:16:25.755Z,79.80
2018-02-18T05:18:52.022Z,79.40
2018-02-18T05:21:18.232Z,79.10
2018-02-18T05:23:44.447Z,79.40
2018-02-18T05:26:10.676Z,79.70
2018-02-18T05:28:36.901Z,79.60
2018-02-18T05:31:03.135Z,79.50
2018-02-18T05:33:29.407Z,79.30
2018-02-18T05:35:56.371Z,79.80
2018-02-18T05:38:22.592Z,79.70
2018-02-18T05:40:48.881Z,79.50
2018-02-18T05:43:15.105Z,79.40
2018-02-18T05:45:41.332Z,79.60
2018-02-18T05:48:07.556Z,79.60
2018-02-18T05:50:33.815Z,79.30
2018-02-18T05:53:00.764Z,79.50
2018-02-18T05:55:27.765Z,79.60
2018-02-18T05:57:54.000Z,79.50
2018-02-18T06:00:20.212Z,79.80
2018-02-18T06:02:46.429Z,79.40
2018-02-18T06:05:12.720Z,79.40
2018-02-18T06:07:39.680Z,78.90
2018-02-18T06:10:06.654Z,78.80
2018-02-18T06:12:32.875Z,78.80
2018-02-18T06:14:59.079Z,78.50
2018-02-18T06:17:26.059Z,78.70
2018-02-18T06:19:52.284Z,78.70
2018-02-18T06:22:18.541Z,78.90
2018-02-18T06:24:48.179Z,78.90
2018-02-18T06:27:15.175Z,78.70
2018-02-18T06:29:41.410Z,78.70
2018-02-18T06:32:07.644Z,78.40
2018-02-18T06:34:33.896Z,78.10
2018-02-18T06:37:00.128Z,78.50
2018-02-18T06:39:27.178Z,77.70
2018-02-18T06:41:53.380Z,78.30
2018-02-18T06:44:19.587Z,78.40
2018-02-18T06:46:45.847Z,78.40
2018-02-18T06:49:12.128Z,78.20
2018-02-18T06:51:38.352Z,78.00
2018-02-18T06:54:04.567Z,78.10
2018-02-18T06:56:31.572Z,78.30
2018-02-18T06:58:57.812Z,78.30
2018-02-18T07:01:25.511Z,78.10
2018-02-18T07:03:52.440Z,78.10
2018-02-18T07:06:18.700Z,78.20
2018-02-18T07:08:44.963Z,78.40
2018-02-18T07:11:11.183Z,78.50
2018-02-18T07:13:37.452Z,78.40
2018-02-18T07:16:04.408Z,79.20
2018-02-18T07:18:31.407Z,78.50
2018-02-18T07:20:57.618Z,78.60
2018-02-18T07:23:23.863Z,78.60
2018-02-18T07:25:50.099Z,78.60
2018-02-18T07:28:16.336Z,78.80
2018-02-18T07:30:42.584Z,78.80
2018-02-18T07:33:09.560Z,79.00
2018-02-18T07:35:35.830Z,79.00
2018-02-18T07:38:02.064Z,79.10
2018-02-18T07:40:28.275Z,79.10
2018-02-18T07:42:54.492Z,79.30
2018-02-18T07:45:20.916Z,79.40
2018-02-18T07:47:47.171Z,78.90
2018-02-18T07:50:13.412Z,78.90
2018-02-18T07:52:39.656Z,78.60
2018-02-18T07:55:05.895Z,78.30
2018-02-18T07:57:32.901Z,77.50
2018-02-18T07:59:59.135Z,77.40
2018-02-18T08:02:25.364Z,77.40
2018-02-18T08:04:51.611Z,76.00
2018-02-18T08:07:17.867Z,74.40
2018-02-18T08:09:44.128Z,72.40
2018-02-18T08:12:10.341Z,70.40
2018-02-18T08:14:36.559Z,67.20
2018-02-18T08:17:02.830Z,64.00
2018-02-18T08:19:29.056Z,60.20
2018-02-18T08:21:55.328Z,57.90
2018-02-18T08:24:22.303Z,54.60
2018-02-18T08:26:48.544Z,54.50
2018-02-18T08:29:14.771Z,53.00
2018-02-18T08:31:41.024Z,52.80
2018-02-18T08:34:07.292Z,52.50
2018-02-18T08:36:41.362Z,49.20
2018-02-18T08:39:07.625Z,49.10
2018-02-18T08:41:34.620Z,46.00
2018-02-18T08:44:00.855Z,46.00
2018-02-18T08:46:27.070Z,44.60
2018-02-18T08:48:53.323Z,43.50
2018-02-18T08:51:19.544Z,43.40
2018-02-18T08:53:45.773Z,44.40
2018-02-18T08:56:11.995Z,43.40
2018-02-18T08:58:38.220Z,42.60
2018-02-18T09:01:04.429Z,41.00
2018-02-18T09:03:30.664Z,40.60
2018-02-18T09:05:56.924Z,40.90
2018-02-18T09:08:23.135Z,39.90
2018-02-18T09:10:49.353Z,40.30
2018-02-18T09:13:15.716Z,39.40
2018-02-18T09:15:41.948Z,40.80
2018-02-18T09:18:08.172Z,43.10
2018-02-18T09:20:34.511Z,46.20
2018-02-18T09:23:00.744Z,48.80
2018-02-18T09:25:26.968Z,50.00
2018-02-18T09:27:53.219Z,48.80
2018-02-18T09:30:20.213Z,46.30
2018-02-18T09:32:46.447Z,46.20
2018-02-18T09:35:12.700Z,46.70
2018-02-18T09:37:38.914Z,45.00
2018-02-18T09:40:05.133Z,43.90
2018-02-18T09:42:31.384Z,44.50
2018-02-18T09:44:57.604Z,44.00
2018-02-18T09:47:23.859Z,43.30
2018-02-18T09:49:50.860Z,44.90
2018-02-18T09:52:17.117Z,44.90
2018-02-18T09:54:43.357Z,44.70
2018-02-18T09:57:10.349Z,41.10
2018-02-18T09:59:36.864Z,41.10
2018-02-18T10:02:03.091Z,40.60
2018-02-18T10:04:29.332Z,39.50
2018-02-18T10:06:55.565Z,42.10
2018-02-18T10:09:21.855Z,45.40
2018-02-18T10:11:48.872Z,48.90
2018-02-18T10:14:15.166Z,48.90
2018-02-18T10:16:41.381Z,51.90
2018-02-18T10:19:08.476Z,53.30
2018-02-18T10:21:34.724Z,52.50
2018-02-18T10:24:00.936Z,46.60
2018-02-18T10:26:27.180Z,45.50
2018-02-18T10:28:53.411Z,46.10
2018-02-18T10:31:19.685Z,45.00
2018-02-18T10:33:45.921Z,42.10
2018-02-18T10:36:12.245Z,40.20
2018-02-18T10:38:38.451Z,38.50
2018-02-18T10:41:04.777Z,39.20
2018-02-18T10:43:31.756Z,39.60
2018-02-18T10:45:57.981Z,39.60
2018-02-18T10:48:24.304Z,40.90
2018-02-18T10:50:50.552Z,40.40
2018-02-18T10:56:14.364Z,42.70
2018-02-18T10:58:40.588Z,43.00
2018-02-18T11:01:06.805Z,45.70
2018-02-18T11:03:33.012Z,45.70
2018-02-18T11:05:59.334Z,46.90
2018-02-18T11:08:25.532Z,48.30
2018-02-18T11:10:52.551Z,45.80
2018-02-18T11:13:18.796Z,45.70
2018-02-18T11:15:45.920Z,46.60
2018-02-18T11:18:12.175Z,46.60
2018-02-18T11:20:38.560Z,48.80
2018-02-18T11:23:04.895Z,50.00
2018-02-18T11:25:31.125Z,48.60
2018-02-18T11:27:57.379Z,47.50
2018-02-18T11:30:23.606Z,48.20
2018-02-18T11:32:49.836Z,46.70
2018-02-18T11:35:16.112Z,44.60
2018-02-18T11:37:42.398Z,42.60
2018-02-18T11:40:08.624Z,45.30
2018-02-18T11:42:34.836Z,47.10
2018-02-18T11:45:01.077Z,47.50
2018-02-18T11:47:28.817Z,50.30
2018-02-18T11:49:55.051Z,50.30
2018-02-18T11:52:21.352Z,52.70
2018-02-18T11:54:47.572Z,53.20
2018-02-18T11:57:13.848Z,54.00
2018-02-18T11:59:40.083Z,55.70
2018-02-18T12:02:06.291Z,57.40
2018-02-18T12:04:32.564Z,57.40
2018-02-18T12:06:59.541Z,58.40
2018-02-18T12:09:25.979Z,58.40
2018-02-18T12:11:52.244Z,59.60
2018-02-18T12:14:18.488Z,57.60
2018-02-18T12:16:44.687Z,58.70
2018-02-18T12:19:10.959Z,59.00
2018-02-18T12:21:37.964Z,59.30
2018-02-18T12:24:04.192Z,59.30
2018-02-18T12:26:30.448Z,59.70
2018-02-18T12:28:56.680Z,59.40
2018-02-18T12:31:22.897Z,58.60
2018-02-18T12:33:49.867Z,59.70
2018-02-18T12:36:16.856Z,59.20
2018-02-18T12:38:43.088Z,59.20
2018-02-18T12:41:09.309Z,59.10
2018-02-18T12:43:35.571Z,59.70
2018-02-18T12:46:03.272Z,59.60
2018-02-18T12:48:30.232Z,60.00
2018-02-18T12:50:56.448Z,60.00
2018-02-18T12:53:22.728Z,59.30
2018-02-18T12:55:48.976Z,60.50
2018-02-18T12:58:15.240Z,60.00
2018-02-18T13:00:41.467Z,61.20
2018-02-18T13:03:07.719Z,60.00
2018-02-18T13:05:33.935Z,59.80
2018-02-18T13:08:00.144Z,59.70
2018-02-18T13:10:27.178Z,62.50
2018-02-18T13:12:54.136Z,63.00
2018-02-18T13:15:21.140Z,61.90
2018-02-18T13:17:47.369Z,61.90
2018-02-18T13:20:13.599Z,62.00
2018-02-18T13:22:39.992Z,60.40
2018-02-18T13:25:06.236Z,59.90
2018-02-18T13:27:32.432Z,60.20
2018-02-18T13:29:58.687Z,60.50
2018-02-18T13:32:24.924Z,60.80
2018-02-18T13:34:51.167Z,61.60
2018-02-18T13:37:17.420Z,61.60
2018-02-18T13:39:44.380Z,61.00
2018-02-18T13:42:11.453Z,61.80
2018-02-18T13:44:37.671Z,61.60
2018-02-18T13:47:03.901Z,59.50
2018-02-18T13:49:30.137Z,58.20
2018-02-18T13:51:56.387Z,57.30
2018-02-18T13:54:22.660Z,53.90
2018-02-18T13:56:49.616Z,51.50
2018-02-18T13:59:16.608Z,50.80
2018-02-18T14:01:42.844Z,50.70
2018-02-18T14:04:09.132Z,53.90
2018-02-18T14:06:35.392Z,53.00
2018-02-18T14:09:01.624Z,54.20
2018-02-18T14:11:27.841Z,55.20
2018-02-18T14:13:54.058Z,55.20
2018-02-18T14:16:20.292Z,56.30
2018-02-18T14:18:46.735Z,55.10
2018-02-18T14:21:13.036Z,51.50
2018-02-18T14:23:39.312Z,49.90
2018-02-18T14:26:05.598Z,49.40
2018-02-18T14:28:32.559Z,50.30
2018-02-18T14:30:58.773Z,50.30
2018-02-18T14:33:25.037Z,51.50
2018-02-18T14:35:51.276Z,53.60
2018-02-18T14:38:18.362Z,57.10
